Time;durP1;ratioP1;P1;durP2;ratioP2;P2;SDS_P1;SDS_P2;PMS_P1;PMS_P2;Temp;Humidity;BMP_temperature;BMP_pressure;BME280_temperature;BME280_humidity;BME280_pressure;Samples;Min_cycle;Max_cycle;Signal;HPM_P1;HPM_P2
2021/07/03 00:00:13;;;;;;;0.30;0.30;;;17.90;99.90;;;;;;4915668;29;20262;-76
2021/07/03 00:02:41;;;;;;;0.40;0.40;;;18.00;99.90;;;;;;4915783;29;20207;-76
2021/07/03 00:05:11;;;;;;;0.40;0.40;;;17.80;99.90;;;;;;4915407;29;20242;-76
2021/07/03 00:07:38;;;;;;;0.30;0.30;;;17.80;99.90;;;;;;4915533;29;20206;-75
2021/07/03 00:10:07;;;;;;;0.40;0.40;;;17.70;99.90;;;;;;4915512;29;20631;-76
2021/07/03 00:12:35;;;;;;;0.40;0.40;;;17.80;99.90;;;;;;4915979;29;20278;-76
2021/07/03 00:15:06;;;;;;;0.40;0.40;;;17.70;99.90;;;;;;4915518;29;20226;-76
2021/07/03 00:17:36;;;;;;;0.40;0.40;;;17.90;99.90;;;;;;4915747;29;20580;-76
2021/07/03 00:20:06;;;;;;;0.40;0.40;;;17.80;99.90;;;;;;4915708;29;20209;-76
2021/07/03 00:22:33;;;;;;;0.40;0.40;;;17.70;99.90;;;;;;4915640;29;20262;-76
2021/07/03 00:25:03;;;;;;;0.40;0.40;;;17.70;99.90;;;;;;4915514;29;20226;-76
2021/07/03 00:27:31;;;;;;;0.40;0.40;;;17.50;99.90;;;;;;4918754;29;20743;-76
2021/07/03 00:29:59;;;;;;;0.40;0.40;;;17.50;99.90;;;;;;4919147;29;20688;-76
2021/07/03 00:32:27;;;;;;;0.40;0.40;;;17.60;99.90;;;;;;4918984;29;20243;-76
2021/07/03 00:34:56;;;;;;;0.50;0.50;;;17.50;99.90;;;;;;4919064;29;20317;-76
2021/07/03 00:37:24;;;;;;;0.40;0.40;;;17.50;99.90;;;;;;4918826;29;20664;-76
2021/07/03 00:39:52;;;;;;;0.40;0.40;;;17.50;99.90;;;;;;4919021;29;20237;-76
2021/07/03 00:42:20;;;;;;;0.40;0.40;;;17.50;99.90;;;;;;4918889;29;20661;-76
2021/07/03 00:44:48;;;;;;;0.40;0.40;;;17.50;99.90;;;;;;4919010;29;20258;-76
2021/07/03 00:47:16;;;;;;;0.40;0.40;;;17.40;99.90;;;;;;4918804;29;20210;-76
2021/07/03 00:49:45;;;;;;;0.40;0.40;;;17.50;99.90;;;;;;4918795;29;20218;-76
2021/07/03 00:52:15;;;;;;;0.40;0.40;;;17.40;99.90;;;;;;4918736;29;20202;-76
2021/07/03 00:54:44;;;;;;;0.50;0.50;;;17.60;99.90;;;;;;4918639;29;20211;-76
2021/07/03 00:57:12;;;;;;;0.40;0.40;;;17.60;99.90;;;;;;4918869;29;20279;-76
2021/07/03 00:59:43;;;;;;;0.40;0.40;;;17.60;99.90;;;;;;4918628;29;20206;-76
2021/07/03 01:02:12;;;;;;;0.40;0.40;;;17.70;99.90;;;;;;4918634;29;20207;-76
2021/07/03 01:04:41;;;;;;;0.40;0.40;;;17.70;99.90;;;;;;4918475;29;20575;-76
2021/07/03 01:07:10;;;;;;;0.40;0.40;;;17.70;99.90;;;;;;4918437;29;20606;-76
2021/07/03 01:09:40;;;;;;;0.30;0.30;;;17.70;99.90;;;;;;4921525;29;20206;-75
2021/07/03 01:12:09;;;;;;;0.30;0.30;;;17.80;99.90;;;;;;4921851;29;20231;-75
2021/07/03 01:14:44;;;;;;;0.30;0.30;;;17.90;99.90;;;;;;4922089;29;20282;-75
2021/07/03 01:17:12;;;;;;;0.38;0.38;;;17.80;99.90;;;;;;4922144;29;20266;-76
2021/07/03 01:19:41;;;;;;;0.30;0.30;;;17.90;99.90;;;;;;4921954;29;20210;-76
2021/07/03 01:22:13;;;;;;;0.30;0.30;;;17.90;99.90;;;;;;4918260;29;20767;-76
2021/07/03 01:24:41;;;;;;;0.30;0.30;;;18.00;99.90;;;;;;4918186;29;20246;-76
2021/07/03 01:27:12;;;;;;;0.40;0.40;;;18.00;99.90;;;;;;4918058;29;20210;-76
2021/07/03 01:29:40;;;;;;;0.40;0.40;;;18.10;99.90;;;;;;4918175;29;20215;-76
2021/07/03 01:32:08;;;;;;;0.40;0.40;;;18.10;99.90;;;;;;4918332;29;20259;-76
2021/07/03 01:34:37;;;;;;;0.40;0.40;;;18.10;99.90;;;;;;4918116;29;20222;-76
2021/07/03 01:37:05;;;;;;;0.30;0.30;;;18.20;99.90;;;;;;4916907;29;20744;-76
2021/07/03 01:39:35;;;;;;;0.30;0.30;;;18.20;99.90;;;;;;4917720;29;20672;-76
2021/07/03 01:42:03;;;;;;;0.40;0.40;;;18.20;99.90;;;;;;4917898;29;20210;-76
2021/07/03 01:44:31;;;;;;;0.30;0.30;;;18.10;99.90;;;;;;4917671;29;20260;-76
2021/07/03 01:47:00;;;;;;;0.30;0.30;;;18.20;99.90;;;;;;4917790;29;20270;-76
2021/07/03 01:49:36;;;;;;;0.30;0.30;;;18.30;99.90;;;;;;4917966;29;20213;-76
2021/07/03 01:52:04;;;;;;;0.40;0.40;;;18.40;99.90;;;;;;4917908;29;20210;-76
2021/07/03 01:54:32;;;;;;;0.30;0.30;;;18.30;99.90;;;;;;4917186;29;20290;-76
2021/07/03 01:57:02;;;;;;;0.32;0.32;;;18.30;99.90;;;;;;4917413;29;20266;-76
2021/07/03 01:59:32;;;;;;;0.30;0.30;;;18.20;99.90;;;;;;4917606;29;20250;-76
2021/07/03 02:02:02;;;;;;;0.40;0.40;;;18.00;99.90;;;;;;4917774;29;20214;-77
2021/07/03 02:04:31;;;;;;;0.30;0.30;;;17.50;99.90;;;;;;4917533;29;20257;-76
2021/07/03 02:06:59;;;;;;;0.40;0.40;;;17.90;99.90;;;;;;4917186;29;20273;-76
2021/07/03 02:09:27;;;;;;;0.40;0.40;;;17.90;99.90;;;;;;4917320;29;20203;-76
2021/07/03 02:11:54;;;;;;;0.30;0.30;;;17.90;99.90;;;;;;4917597;29;20210;-76
2021/07/03 02:14:24;;;;;;;0.30;0.30;;;17.80;99.90;;;;;;4917364;29;20230;-76
2021/07/03 02:16:52;;;;;;;0.30;0.30;;;17.90;99.90;;;;;;4917032;29;20735;-76
2021/07/03 02:19:20;;;;;;;0.40;0.40;;;17.90;99.90;;;;;;4917367;29;20242;-76
2021/07/03 02:21:48;;;;;;;0.40;0.40;;;17.70;99.90;;;;;;4917237;29;20214;-77
2021/07/03 02:24:16;;;;;;;0.30;0.30;;;17.70;99.90;;;;;;4917495;29;20199;-76
2021/07/03 02:26:44;;;;;;;0.40;0.40;;;17.80;99.90;;;;;;4916989;29;20256;-76
2021/07/03 02:29:12;;;;;;;0.30;0.30;;;17.80;99.90;;;;;;4917211;29;20206;-76
2021/07/03 02:31:41;;;;;;;0.40;0.40;;;17.90;99.90;;;;;;4917078;29;20211;-76
2021/07/03 02:34:09;;;;;;;0.30;0.30;;;17.90;99.90;;;;;;4917032;29;20230;-76
2021/07/03 02:36:37;;;;;;;0.30;0.30;;;18.00;99.90;;;;;;4916571;29;20649;-76
2021/07/03 02:39:06;;;;;;;0.40;0.40;;;18.10;99.90;;;;;;4917049;29;20207;-76
2021/07/03 02:41:34;;;;;;;0.40;0.40;;;18.20;99.90;;;;;;4917013;29;20207;-76
2021/07/03 02:44:02;;;;;;;0.30;0.30;;;18.10;99.90;;;;;;4916934;29;20250;-76
2021/07/03 02:46:30;;;;;;;0.30;0.30;;;18.10;99.90;;;;;;4916505;29;20262;-77
2021/07/03 02:48:59;;;;;;;0.40;0.40;;;18.10;99.90;;;;;;4916345;29;20293;-77
2021/07/03 02:51:27;;;;;;;0.30;0.30;;;18.20;99.90;;;;;;4916837;29;20234;-77
2021/07/03 02:53:55;;;;;;;0.40;0.40;;;18.20;99.90;;;;;;4916680;29;20282;-77
2021/07/03 02:56:23;;;;;;;0.40;0.40;;;18.20;99.90;;;;;;4916366;29;20279;-77
2021/07/03 02:58:50;;;;;;;0.30;0.30;;;18.30;99.90;;;;;;4916553;29;20258;-77
2021/07/03 03:01:18;;;;;;;0.40;0.40;;;18.30;99.90;;;;;;4916483;29;20672;-77
2021/07/03 03:03:46;;;;;;;0.30;0.30;;;18.30;99.90;;;;;;4916452;29;20285;-76
2021/07/03 03:06:16;;;;;;;0.30;0.30;;;18.20;99.90;;;;;;4915979;29;20262;-75
2021/07/03 03:08:44;;;;;;;0.40;0.40;;;18.30;99.90;;;;;;4916402;29;20265;-74
2021/07/03 03:11:12;;;;;;;0.30;0.30;;;18.20;99.90;;;;;;4916388;29;20207;-75
2021/07/03 03:13:39;;;;;;;0.50;0.50;;;18.20;99.90;;;;;;4916221;29;20207;-75
2021/07/03 03:16:07;;;;;;;0.40;0.40;;;18.20;99.90;;;;;;4915902;29;20230;-75
2021/07/03 03:18:35;;;;;;;0.40;0.40;;;18.20;99.90;;;;;;4916457;29;20289;-75
2021/07/03 03:21:03;;;;;;;0.30;0.30;;;18.20;99.90;;;;;;4916110;29;20206;-75
2021/07/03 03:23:32;;;;;;;0.30;0.30;;;18.20;99.90;;;;;;4916255;29;20203;-76
2021/07/03 03:26:00;;;;;;;0.40;0.40;;;18.20;99.90;;;;;;4915804;29;20266;-76
2021/07/03 03:28:28;;;;;;;0.40;0.40;;;18.20;99.90;;;;;;4916074;29;20207;-76
2021/07/03 03:30:56;;;;;;;0.40;0.40;;;18.20;99.90;;;;;;4916042;29;20210;-76
2021/07/03 03:33:24;;;;;;;0.30;0.30;;;18.20;99.90;;;;;;4916225;29;20632;-76
2021/07/03 03:36:12;;;;;;;0.40;0.40;;;18.30;99.90;;;;;;4915634;29;20250;-75
2021/07/03 03:38:41;;;;;;;0.30;0.30;;;18.20;99.90;;;;;;4916089;29;20261;-76
2021/07/03 03:41:09;;;;;;;0.30;0.30;;;18.30;99.90;;;;;;4919566;29;20202;-74
2021/07/03 03:43:37;;;;;;;0.40;0.40;;;18.30;99.90;;;;;;4920170;29;20549;-74
2021/07/03 03:46:05;;;;;;;0.45;0.45;;;18.20;99.90;;;;;;4920473;29;20227;-74
2021/07/03 03:48:33;;;;;;;0.30;0.30;;;18.20;99.90;;;;;;4920798;29;20210;-74
2021/07/03 03:51:00;;;;;;;0.40;0.40;;;18.10;99.90;;;;;;4920308;29;20215;-74
2021/07/03 03:53:28;;;;;;;0.40;0.40;;;18.20;99.90;;;;;;4915905;29;20258;-76
2021/07/03 03:55:57;;;;;;;0.30;0.30;;;18.20;99.90;;;;;;4915420;29;20700;-76
2021/07/03 03:58:25;;;;;;;0.40;0.40;;;18.20;99.90;;;;;;4915668;29;20211;-76
2021/07/03 04:00:53;;;;;;;0.30;0.30;;;18.30;99.90;;;;;;4916713;29;20580;-76
2021/07/03 04:03:21;;;;;;;0.30;0.30;;;18.30;99.90;;;;;;4919806;29;20210;-76
2021/07/03 04:05:49;;;;;;;0.30;0.30;;;18.30;99.90;;;;;;4932539;23;20263;-74
2021/07/03 04:08:17;;;;;;;0.30;0.30;;;18.30;99.90;;;;;;4919593;29;20203;-74
2021/07/03 04:10:45;;;;;;;0.40;0.40;;;18.20;99.90;;;;;;4919800;29;20253;-74
2021/07/03 04:13:14;;;;;;;0.40;0.40;;;18.20;99.90;;;;;;4919764;29;20634;-74
2021/07/03 04:15:42;;;;;;;0.40;0.40;;;18.20;99.90;;;;;;4919454;29;20240;-74
2021/07/03 04:18:10;;;;;;;0.40;0.40;;;18.30;99.90;;;;;;4919485;29;20214;-74
2021/07/03 04:20:38;;;;;;;0.30;0.30;;;18.30;99.90;;;;;;4919292;29;20228;-74
2021/07/03 04:23:06;;;;;;;0.30;0.30;;;18.40;99.90;;;;;;4919613;29;20242;-74
2021/07/03 04:25:34;;;;;;;0.40;0.40;;;18.40;99.90;;;;;;4919243;29;20636;-74
2021/07/03 04:28:02;;;;;;;0.40;0.40;;;18.50;99.90;;;;;;4919255;29;20207;-74
2021/07/03 04:30:31;;;;;;;0.40;0.40;;;18.50;99.90;;;;;;4919217;29;20210;-74
2021/07/03 04:32:59;;;;;;;0.30;0.30;;;18.40;99.90;;;;;;4919258;29;20297;-74
2021/07/03 04:35:27;;;;;;;0.40;0.40;;;18.30;99.90;;;;;;4918815;29;20269;-74
2021/07/03 04:37:54;;;;;;;0.47;0.47;;;18.20;99.90;;;;;;4919306;29;20258;-74
2021/07/03 04:40:22;;;;;;;0.30;0.30;;;18.20;99.90;;;;;;4919092;29;20234;-74
2021/07/03 04:42:50;;;;;;;0.30;0.30;;;18.20;99.90;;;;;;4919073;29;20577;-74
2021/07/03 04:45:18;;;;;;;0.40;0.40;;;18.30;99.90;;;;;;4918633;29;20226;-74
2021/07/03 04:47:47;;;;;;;0.40;0.40;;;18.30;99.90;;;;;;4918875;29;20642;-74
2021/07/03 04:50:15;;;;;;;0.30;0.30;;;18.40;99.90;;;;;;4919073;29;20203;-74
2021/07/03 04:52:43;;;;;;;0.40;0.40;;;18.40;99.90;;;;;;4918848;29;20214;-74
2021/07/03 04:55:12;;;;;;;0.38;0.38;;;18.50;99.90;;;;;;4918685;29;20262;-74
2021/07/03 04:57:40;;;;;;;0.40;0.40;;;18.50;99.90;;;;;;4918678;29;20231;-74
2021/07/03 05:00:08;;;;;;;0.30;0.30;;;18.40;99.90;;;;;;4918708;29;20266;-74
2021/07/03 05:02:36;;;;;;;0.30;0.30;;;18.40;99.90;;;;;;4916580;29;20211;-74
2021/07/03 05:05:07;;;;;;;0.40;0.40;;;18.40;99.90;;;;;;4915570;29;20246;-74
2021/07/03 05:07:35;;;;;;;0.40;0.40;;;18.30;99.90;;;;;;4918675;29;20329;-74
2021/07/03 05:10:03;;;;;;;0.30;0.30;;;18.40;99.90;;;;;;4918204;29;20679;-74
2021/07/03 05:12:31;;;;;;;0.40;0.40;;;18.30;99.90;;;;;;4918867;29;20206;-74
2021/07/03 05:14:59;;;;;;;0.30;0.30;;;18.30;99.90;;;;;;4918310;29;20238;-74
2021/07/03 05:17:28;;;;;;;0.40;0.40;;;18.30;99.90;;;;;;4918274;29;20211;-74
2021/07/03 05:19:56;;;;;;;0.40;0.40;;;18.40;99.90;;;;;;4918416;29;20214;-74
2021/07/03 05:22:25;;;;;;;0.40;0.40;;;18.40;99.90;;;;;;4918454;29;20278;-74
2021/07/03 05:24:53;;;;;;;0.40;0.40;;;18.50;99.90;;;;;;4918603;29;20648;-74
2021/07/03 05:27:21;;;;;;;0.40;0.40;;;18.50;99.90;;;;;;4918142;29;20638;-74
2021/07/03 05:29:49;;;;;;;0.30;0.30;;;18.60;99.90;;;;;;4917753;29;20245;-74
2021/07/03 05:32:17;;;;;;;0.40;0.40;;;18.60;99.90;;;;;;4903485;29;20211;-74
2021/07/03 05:34:45;;;;;;;0.40;0.40;;;18.50;99.90;;;;;;4899231;29;20208;-74
2021/07/03 05:37:12;;;;;;;0.30;0.30;;;18.60;99.90;;;;;;4898994;29;20211;-74
2021/07/03 05:39:42;;;;;;;0.40;0.40;;;18.60;99.90;;;;;;4901503;29;20266;-74
2021/07/03 05:42:09;;;;;;;0.40;0.40;;;18.60;99.90;;;;;;4903866;29;20202;-74
2021/07/03 05:44:37;;;;;;;0.47;0.47;;;18.70;99.90;;;;;;4917878;29;20623;-74
2021/07/03 05:47:05;;;;;;;0.40;0.40;;;18.70;99.90;;;;;;4917850;29;20199;-74
2021/07/03 05:49:34;;;;;;;0.30;0.30;;;18.70;99.90;;;;;;4901912;29;20203;-75
2021/07/03 05:52:02;;;;;;;0.40;0.40;;;18.80;99.90;;;;;;4898772;29;20620;-74
2021/07/03 05:54:32;;;;;;;0.40;0.40;;;18.80;99.90;;;;;;4910677;29;20258;-74
2021/07/03 05:57:01;;;;;;;0.40;0.40;;;19.00;99.90;;;;;;4917352;29;20656;-74
2021/07/03 05:59:29;;;;;;;0.30;0.30;;;19.00;99.90;;;;;;4917735;29;20266;-74
2021/07/03 06:01:56;;;;;;;0.40;0.40;;;19.00;99.90;;;;;;4917637;29;20258;-74
2021/07/03 06:04:24;;;;;;;0.30;0.30;;;19.10;99.90;;;;;;4916923;29;20207;-74
2021/07/03 06:06:52;;;;;;;0.30;0.30;;;19.10;99.90;;;;;;4914104;29;20261;-74
2021/07/03 06:09:20;;;;;;;0.38;0.38;;;19.20;99.90;;;;;;4917297;29;20619;-73
2021/07/03 06:11:48;;;;;;;0.30;0.30;;;19.20;99.90;;;;;;4917523;29;20202;-74
2021/07/03 06:14:17;;;;;;;0.30;0.30;;;19.10;99.90;;;;;;4917357;29;20691;-74
2021/07/03 06:16:45;;;;;;;0.30;0.30;;;19.20;99.90;;;;;;4916978;29;20290;-74
2021/07/03 06:19:13;;;;;;;0.30;0.30;;;19.20;99.90;;;;;;4917401;29;20206;-74
2021/07/03 06:21:41;;;;;;;0.40;0.40;;;19.20;99.90;;;;;;4915653;29;20211;-74
2021/07/03 06:24:10;;;;;;;0.30;0.30;;;19.30;99.90;;;;;;4910276;29;20258;-74
2021/07/03 06:26:38;;;;;;;0.30;0.30;;;19.30;99.90;;;;;;4916273;29;20298;-74
2021/07/03 06:29:06;;;;;;;0.30;0.30;;;19.30;99.90;;;;;;4916980;29;20207;-74
2021/07/03 06:31:35;;;;;;;0.40;0.40;;;19.30;99.90;;;;;;4916839;29;20739;-74
2021/07/03 06:34:03;;;;;;;0.40;0.40;;;19.40;99.90;;;;;;4916596;29;20229;-74
2021/07/03 06:36:31;;;;;;;0.40;0.40;;;19.60;99.90;;;;;;4916454;29;20258;-74
2021/07/03 06:38:58;;;;;;;0.30;0.30;;;19.50;99.90;;;;;;4916754;29;20265;-74
2021/07/03 06:41:26;;;;;;;0.32;0.32;;;19.50;99.90;;;;;;4916502;29;20230;-74
2021/07/03 06:43:54;;;;;;;0.30;0.30;;;19.60;99.90;;;;;;4916579;29;20203;-74
2021/07/03 06:46:22;;;;;;;0.30;0.30;;;19.60;99.90;;;;;;4916234;29;20355;-74
2021/07/03 06:48:52;;;;;;;0.30;0.30;;;19.60;99.90;;;;;;4916619;29;20221;-74
2021/07/03 06:51:20;;;;;;;0.30;0.30;;;19.60;99.90;;;;;;4916520;29;20266;-74
2021/07/03 06:53:47;;;;;;;0.40;0.40;;;19.70;99.90;;;;;;4916616;29;20211;-74
2021/07/03 06:56:15;;;;;;;0.30;0.30;;;19.80;99.90;;;;;;4916150;29;20227;-73
2021/07/03 06:58:43;;;;;;;0.40;0.40;;;19.70;99.90;;;;;;4916531;29;20238;-75
2021/07/03 07:01:11;;;;;;;0.30;0.30;;;19.70;99.90;;;;;;4915968;29;20249;-74
2021/07/03 07:03:39;;;;;;;0.30;0.30;;;19.70;99.90;;;;;;4916221;29;20219;-75
2021/07/03 07:06:08;;;;;;;0.40;0.40;;;19.70;99.90;;;;;;4915675;29;20230;-75
2021/07/03 07:08:36;;;;;;;0.40;0.40;;;19.70;99.90;;;;;;4915518;29;20239;-75
2021/07/03 07:11:04;;;;;;;0.40;0.40;;;19.70;99.90;;;;;;4915302;29;20249;-75
2021/07/03 07:13:32;;;;;;;0.40;0.40;;;19.80;99.90;;;;;;4915121;29;20214;-75
2021/07/03 07:16:00;;;;;;;0.30;0.30;;;19.80;99.90;;;;;;4915170;29;20230;-75
2021/07/03 07:18:28;;;;;;;0.40;0.40;;;19.80;99.90;;;;;;4915516;29;20222;-74
2021/07/03 07:20:56;;;;;;;0.30;0.30;;;19.70;99.90;;;;;;4915586;29;20210;-74
2021/07/03 07:23:25;;;;;;;0.30;0.30;;;19.80;99.90;;;;;;4915454;29;20278;-75
2021/07/03 07:25:53;;;;;;;0.40;0.40;;;20.10;99.90;;;;;;4915082;29;20230;-74
2021/07/03 07:28:21;;;;;;;0.40;0.40;;;20.10;99.90;;;;;;4915089;29;20269;-75
2021/07/03 07:30:49;;;;;;;0.40;0.40;;;20.10;99.90;;;;;;4915260;29;20210;-74
2021/07/03 07:33:17;;;;;;;0.30;0.30;;;20.20;99.90;;;;;;4914582;29;20207;-74
2021/07/03 07:35:45;;;;;;;0.30;0.30;;;20.20;99.90;;;;;;4912568;29;20231;-75
2021/07/03 07:38:12;;;;;;;0.40;0.40;;;20.20;99.90;;;;;;4914479;29;20286;-74
2021/07/03 07:40:42;;;;;;;0.30;0.30;;;20.10;99.90;;;;;;4914736;29;20625;-75
2021/07/03 07:43:09;;;;;;;0.30;0.30;;;20.10;99.90;;;;;;4915011;29;20250;-75
2021/07/03 07:45:38;;;;;;;0.40;0.40;;;20.20;99.90;;;;;;4914988;29;20258;-74
2021/07/03 07:48:05;;;;;;;0.30;0.30;;;20.30;99.90;;;;;;4915166;29;20556;-75
2021/07/03 07:50:35;;;;;;;0.30;0.30;;;20.40;99.90;;;;;;4915126;29;20230;-75
2021/07/03 07:53:03;;;;;;;0.30;0.30;;;20.40;99.90;;;;;;4914999;29;20239;-75
2021/07/03 07:55:31;;;;;;;0.40;0.40;;;20.40;99.90;;;;;;4914774;29;20285;-75
2021/07/03 07:58:01;;;;;;;0.40;0.40;;;20.40;99.90;;;;;;4915073;29;20230;-74
2021/07/03 08:00:29;;;;;;;0.30;0.30;;;20.50;99.90;;;;;;4915063;29;20266;-75
2021/07/03 08:02:57;;;;;;;0.30;0.30;;;20.50;99.90;;;;;;4914929;29;20207;-74
2021/07/03 08:05:25;;;;;;;0.30;0.30;;;20.50;99.90;;;;;;4404528;29;15043936;-74
2021/07/03 08:07:53;;;;;;;0.30;0.30;;;20.60;99.90;;;;;;4915503;29;20266;-74
2021/07/03 08:10:21;;;;;;;0.30;0.30;;;20.70;99.90;;;;;;4915827;29;20634;-74
2021/07/03 08:12:49;;;;;;;0.30;0.30;;;20.70;99.90;;;;;;4915724;29;20258;-75
2021/07/03 08:15:18;;;;;;;0.20;0.20;;;20.70;99.90;;;;;;4915434;29;20230;-75
2021/07/03 08:17:46;;;;;;;0.30;0.30;;;20.70;99.90;;;;;;4915418;29;20734;-75
2021/07/03 08:20:16;;;;;;;0.30;0.30;;;20.80;99.90;;;;;;4915441;29;20206;-75
2021/07/03 08:22:44;;;;;;;0.30;0.30;;;20.80;99.90;;;;;;4915708;29;20206;-74
2021/07/03 08:25:13;;;;;;;0.30;0.30;;;21.00;99.90;;;;;;4915406;29;20231;-75
2021/07/03 08:27:41;;;;;;;0.30;0.30;;;21.00;99.90;;;;;;4915556;29;20198;-74
2021/07/03 08:30:11;;;;;;;0.40;0.40;;;20.90;99.90;;;;;;4915501;29;20635;-74
2021/07/03 08:32:40;;;;;;;0.30;0.30;;;21.00;99.90;;;;;;4915305;29;20207;-74
2021/07/03 08:35:12;;;;;;;0.30;0.30;;;21.10;99.90;;;;;;4915286;29;20234;-75
2021/07/03 08:37:40;;;;;;;0.20;0.20;;;21.10;99.90;;;;;;4915422;29;20455;-74
2021/07/03 08:40:10;;;;;;;0.40;0.40;;;21.20;99.70;;;;;;4915610;29;20211;-74
2021/07/03 08:42:38;;;;;;;0.30;0.30;;;21.40;99.90;;;;;;4915406;29;20211;-74
2021/07/03 08:45:09;;;;;;;0.30;0.30;;;21.40;99.50;;;;;;4915158;29;20712;-74
2021/07/03 08:47:41;;;;;;;0.30;0.30;;;21.60;98.90;;;;;;4917274;29;20612;-74
2021/07/03 08:50:11;;;;;;;0.20;0.20;;;21.60;98.50;;;;;;4918857;29;20257;-74
2021/07/03 08:52:39;;;;;;;0.30;0.30;;;21.70;96.80;;;;;;4918867;29;20215;-74
2021/07/03 08:55:12;;;;;;;0.30;0.30;;;21.70;96.80;;;;;;4918636;29;20269;-74
2021/07/03 08:57:44;;;;;;;0.30;0.30;;;21.70;95.00;;;;;;4918453;29;20624;-74
2021/07/03 09:00:13;;;;;;;0.30;0.30;;;21.70;94.30;;;;;;4918587;29;20211;-74
2021/07/03 09:02:45;;;;;;;0.30;0.30;;;21.80;93.00;;;;;;4918451;29;20215;-74
2021/07/03 09:05:26;;;;;;;0.20;0.20;;;21.90;93.80;;;;;;4918382;29;20782;-75
2021/07/03 09:07:59;;;;;;;0.30;0.30;;;21.90;92.20;;;;;;4918446;29;20649;-74
2021/07/03 09:10:29;;;;;;;0.30;0.30;;;21.90;92.60;;;;;;4919503;29;20262;-77
2021/07/03 09:12:59;;;;;;;0.20;0.20;;;21.80;92.90;;;;;;4917623;29;20199;-78
2021/07/03 09:15:29;;;;;;;0.20;0.20;;;22.00;94.90;;;;;;4920515;29;20234;-79
2021/07/03 09:18:00;;;;;;;0.20;0.20;;;22.00;93.90;;;;;;4920973;29;20227;-79
2021/07/03 09:20:31;;;;;;;0.20;0.20;;;21.90;94.30;;;;;;4912352;29;20218;-79
2021/07/03 09:23:07;;;;;;;0.20;0.20;;;21.80;93.50;;;;;;4915286;29;20200;-79
2021/07/03 09:25:36;;;;;;;0.20;0.20;;;21.80;93.40;;;;;;4925175;29;20226;-79
2021/07/03 09:28:09;;;;;;;0.20;0.20;;;21.50;93.80;;;;;;4915175;29;20195;-79
2021/07/03 09:30:38;;;;;;;0.20;0.20;;;21.50;94.70;;;;;;4913053;29;20206;-78
2021/07/03 09:33:07;;;;;;;0.20;0.20;;;21.50;94.60;;;;;;4913231;29;20207;-79
2021/07/03 09:35:35;;;;;;;0.30;0.30;;;21.50;94.50;;;;;;4912156;29;20219;-79
2021/07/03 09:38:05;;;;;;;0.30;0.30;;;21.60;94.10;;;;;;4912720;29;20274;-78
2021/07/03 09:40:38;;;;;;;0.20;0.20;;;21.80;94.20;;;;;;4909418;29;20206;-79
2021/07/03 09:43:08;;;;;;;0.20;0.20;;;21.90;93.50;;;;;;4914069;29;20561;-79
2021/07/03 09:45:37;;;;;;;0.20;0.20;;;21.90;94.10;;;;;;4912562;29;20247;-79
2021/07/03 09:48:11;;;;;;;0.30;0.30;;;21.80;94.30;;;;;;4911944;29;20885;-78
2021/07/03 09:50:41;;;;;;;0.30;0.30;;;21.80;94.60;;;;;;4914646;29;20267;-79
2021/07/03 09:53:09;;;;;;;0.30;0.30;;;21.90;94.80;;;;;;4912055;29;20199;-79
2021/07/03 09:55:38;;;;;;;0.30;0.30;;;21.90;93.80;;;;;;4911753;29;20709;-79
2021/07/03 09:58:08;;;;;;;0.30;0.30;;;22.00;93.10;;;;;;4915298;29;20295;-79
2021/07/03 10:00:36;;;;;;;0.30;0.30;;;22.00;93.00;;;;;;4914095;29;20203;-79
2021/07/03 10:03:06;;;;;;;0.30;0.30;;;22.10;93.20;;;;;;4919908;29;20224;-78
2021/07/03 10:05:40;;;;;;;0.30;0.30;;;22.00;91.10;;;;;;4907852;29;20259;-77
2021/07/03 10:08:12;;;;;;;0.25;0.25;;;22.00;91.10;;;;;;4911067;29;20207;-76
2021/07/03 10:10:44;;;;;;;0.30;0.30;;;21.90;90.10;;;;;;4908109;29;20267;-76
2021/07/03 10:13:17;;;;;;;0.40;0.40;;;22.00;91.70;;;;;;4903252;29;20247;-76
2021/07/03 10:15:45;;;;;;;0.20;0.20;;;21.90;92.90;;;;;;4914037;29;20361;-76
2021/07/03 10:18:15;;;;;;;0.20;0.20;;;21.90;92.50;;;;;;4917466;29;20274;-76
2021/07/03 10:20:45;;;;;;;0.30;0.30;;;22.10;93.20;;;;;;4917179;29;20210;-78
2021/07/03 10:23:13;;;;;;;0.20;0.20;;;22.30;92.50;;;;;;4916892;29;20262;-78
2021/07/03 10:25:43;;;;;;;0.30;0.30;;;22.50;92.10;;;;;;4919182;29;20309;-78
2021/07/03 10:28:13;;;;;;;0.20;0.20;;;22.50;92.50;;;;;;4918883;29;20281;-77
2021/07/03 10:30:43;;;;;;;0.38;0.38;;;22.40;90.40;;;;;;4916828;29;20210;-77
2021/07/03 10:33:16;;;;;;;0.30;0.30;;;22.40;90.70;;;;;;4916990;29;20206;-77
2021/07/03 10:35:48;;;;;;;0.20;0.20;;;22.40;91.90;;;;;;4916577;29;20231;-77
2021/07/03 10:38:22;;;;;;;0.20;0.20;;;22.60;91.20;;;;;;4916673;29;20643;-77
2021/07/03 10:40:52;;;;;;;0.20;0.20;;;22.70;90.70;;;;;;4916559;29;20246;-77
2021/07/03 10:43:22;;;;;;;0.30;0.30;;;22.80;90.90;;;;;;4917666;29;20261;-77
2021/07/03 10:45:52;;;;;;;0.20;0.20;;;22.80;89.10;;;;;;4917786;29;20231;-78
2021/07/03 10:48:22;;;;;;;0.30;0.30;;;22.80;89.10;;;;;;4917659;29;20248;-77
2021/07/03 10:50:54;;;;;;;0.20;0.20;;;22.90;88.20;;;;;;4918628;29;20211;-78
2021/07/03 10:53:27;;;;;;;0.20;0.20;;;23.20;86.90;;;;;;4919487;29;20211;-78
2021/07/03 10:55:57;;;;;;;0.20;0.20;;;23.10;85.70;;;;;;4919270;29;20230;-79
2021/07/03 10:58:29;;;;;;;0.30;0.30;;;23.10;85.60;;;;;;4919672;29;20266;-78
2021/07/03 11:01:11;;;;;;;0.20;0.20;;;23.10;86.90;;;;;;4917835;29;20739;-75
2021/07/03 11:03:44;;;;;;;0.20;0.20;;;23.20;88.10;;;;;;4916416;29;20701;-75
2021/07/03 11:06:18;;;;;;;0.20;0.20;;;23.40;90.10;;;;;;4915765;29;20242;-75
2021/07/03 11:08:50;;;;;;;0.20;0.20;;;23.50;93.00;;;;;;4916131;29;20206;-75
2021/07/03 11:11:18;;;;;;;0.20;0.20;;;23.30;85.40;;;;;;4888333;29;20682;-75
2021/07/03 11:13:48;;;;;;;0.20;0.20;;;23.20;86.80;;;;;;4876532;29;20850;-75
2021/07/03 11:16:16;;;;;;;0.20;0.20;;;23.30;89.20;;;;;;4882888;29;20739;-75
2021/07/03 11:18:47;;;;;;;0.20;0.20;;;23.30;89.50;;;;;;4910879;29;20333;-75
2021/07/03 11:21:17;;;;;;;0.20;0.20;;;23.30;86.50;;;;;;4916125;29;20213;-75
2021/07/03 11:23:45;;;;;;;0.20;0.20;;;23.50;86.20;;;;;;4913004;29;20568;-75
2021/07/03 11:26:14;;;;;;;0.20;0.20;;;23.70;84.80;;;;;;4913729;29;20719;-75
2021/07/03 11:28:47;;;;;;;0.20;0.20;;;23.70;83.30;;;;;;4907069;29;20195;-75
2021/07/03 11:31:15;;;;;;;0.20;0.20;;;23.50;84.50;;;;;;4901001;29;20665;-75
2021/07/03 11:33:42;;;;;;;0.20;0.20;;;23.30;85.20;;;;;;4904540;29;20242;-75
2021/07/03 11:36:11;;;;;;;0.20;0.20;;;23.10;86.90;;;;;;4901438;29;20235;-75
2021/07/03 11:38:41;;;;;;;0.30;0.30;;;23.10;86.60;;;;;;4906416;29;20700;-74
2021/07/03 11:41:09;;;;;;;0.20;0.20;;;23.20;86.50;;;;;;4897102;29;20203;-75
2021/07/03 11:43:37;;;;;;;0.20;0.20;;;23.20;86.00;;;;;;4899112;29;20230;-75
2021/07/03 11:46:05;;;;;;;0.20;0.20;;;23.20;86.00;;;;;;4898624;29;20218;-75
2021/07/03 11:48:34;;;;;;;0.20;0.20;;;23.10;86.30;;;;;;4905902;29;20633;-75
2021/07/03 11:51:04;;;;;;;0.20;0.20;;;23.20;86.40;;;;;;4904644;29;20223;-75
2021/07/03 11:53:32;;;;;;;0.20;0.20;;;23.40;86.20;;;;;;4904909;29;20250;-75
2021/07/03 11:56:03;;;;;;;0.20;0.20;;;23.40;85.40;;;;;;4905988;29;20599;-75
2021/07/03 11:58:33;;;;;;;0.20;0.20;;;23.70;83.70;;;;;;4897223;29;20274;-75
2021/07/03 12:01:03;;;;;;;0.20;0.20;;;23.80;82.00;;;;;;4905833;29;20199;-75
2021/07/03 12:03:34;;;;;;;0.30;0.30;;;23.90;83.00;;;;;;4897087;29;20561;-75
2021/07/03 12:06:04;;;;;;;0.20;0.20;;;24.00;90.80;;;;;;4912601;29;20262;-75
2021/07/03 12:08:33;;;;;;;0.20;0.20;;;24.00;80.80;;;;;;4915835;29;20672;-74
2021/07/03 12:11:04;;;;;;;0.30;0.30;;;23.80;79.90;;;;;;4915483;29;20566;-74
2021/07/03 12:13:34;;;;;;;0.20;0.20;;;23.80;80.40;;;;;;4915540;29;20257;-75
2021/07/03 12:16:05;;;;;;;0.20;0.20;;;23.80;81.20;;;;;;4915439;29;20231;-75
2021/07/03 12:18:35;;;;;;;0.20;0.20;;;24.10;80.90;;;;;;4915519;29;20746;-75
2021/07/03 12:21:05;;;;;;;0.20;0.20;;;24.40;80.30;;;;;;4899221;29;20214;-75
2021/07/03 12:23:33;;;;;;;0.20;0.20;;;24.80;79.10;;;;;;4900300;29;20416;-75
2021/07/03 12:26:04;;;;;;;0.20;0.20;;;25.20;76.30;;;;;;4899961;29;20780;-76
2021/07/03 12:28:33;;;;;;;0.20;0.20;;;25.50;74.50;;;;;;4900895;29;20208;-75
2021/07/03 12:31:05;;;;;;;0.20;0.20;;;25.20;76.20;;;;;;4900226;29;20684;-75
2021/07/03 12:33:35;;;;;;;0.20;0.20;;;25.20;77.10;;;;;;4904784;29;20271;-75
2021/07/03 12:36:03;;;;;;;0.20;0.20;;;25.00;78.30;;;;;;4902235;29;20230;-75
2021/07/03 12:38:32;;;;;;;0.20;0.20;;;25.30;79.00;;;;;;4900078;29;20266;-75
2021/07/03 12:41:00;;;;;;;0.20;0.20;;;25.70;75.50;;;;;;4897617;29;20246;-75
2021/07/03 12:43:37;;;;;;;0.20;0.20;;;26.70;84.30;;;;;;4879376;29;20313;-75
2021/07/03 12:46:07;;;;;;;0.20;0.20;;;;;;;;;;4876000;29;20729;-76
2021/07/03 12:48:37;;;;;;;0.10;0.10;;;27.30;68.00;;;;;;4878237;29;20923;-76
2021/07/03 12:51:11;;;;;;;0.20;0.20;;;27.90;67.20;;;;;;4901603;29;20221;-75
2021/07/03 12:53:39;;;;;;;0.20;0.20;;;27.00;68.80;;;;;;4900205;29;20250;-75
2021/07/03 12:56:08;;;;;;;0.20;0.20;;;26.80;70.80;;;;;;4899955;29;20283;-75